Fairmont, Colorado
Current Conditions -  °F | °C
As of 11:53 AM on Saturday 25 Oct 2014 (Local Time) from KLHX Reporting Station
Clear Clear  
Wind Chill: 77°   Ceiling: Unl
Heat Index: 77°   Visibility: 10mi
Dew Point: 32°   Wind: 0mph
Humidity: 19%   Direction: NA
Pressure: 30.15"   Gusts: NA
Location:  37.8368°N, 103.544°W
Report Text: KLHX 251753Z AUTO 00000KT 10SM CLR 25/00 A3015 RMK AO2 SLP166 T02500000 10250 20072 58012
Loading
Personal Weather Stations






























Interactive Weather Map
Tropical Storm Tracking
New forecast layout! Learn more

10-Day Weather Forecast

Advertisements
Track Severe Weather on mobile